createdAt,value
2019-04-05T00:00:49.877Z,51.07
2019-04-05T00:03:19.401Z,49.10
2019-04-05T00:05:48.759Z,47.70
2019-04-05T00:08:18.097Z,52.37
2019-04-05T00:10:47.738Z,53.57
2019-04-05T00:13:17.149Z,50.70
2019-04-05T00:15:46.614Z,44.47
2019-04-05T00:18:16.158Z,46.37
2019-04-05T00:20:45.564Z,51.57
2019-04-05T00:23:14.830Z,49.90
2019-04-05T00:25:44.271Z,47.67
2019-04-05T00:28:13.610Z,47.37
2019-04-05T00:30:42.914Z,41.63
2019-04-05T00:33:12.306Z,47.43
2019-04-05T00:35:41.662Z,45.20
2019-04-05T00:38:11.106Z,45.37
2019-04-05T00:40:40.705Z,49.10
2019-04-05T00:43:10.107Z,48.80
2019-04-05T00:45:39.420Z,42.13
2019-04-05T00:48:08.833Z,36.97
2019-04-05T00:50:38.544Z,43.47
2019-04-05T00:53:07.845Z,46.53
2019-04-05T00:55:37.661Z,41.30
2019-04-05T00:58:07.032Z,52.30
2019-04-05T01:00:36.598Z,51.40
2019-04-05T01:03:06.164Z,47.77
2019-04-05T01:05:35.613Z,45.50
2019-04-05T01:08:05.022Z,50.57
2019-04-05T01:10:34.643Z,46.27
2019-04-05T01:13:04.225Z,44.73
2019-04-05T01:15:40.882Z,44.03
2019-04-05T01:18:05.674Z,55.10
2019-04-05T01:20:38.326Z,44.50
2019-04-05T01:23:07.959Z,43.90
2019-04-05T01:25:37.953Z,43.47
2019-04-05T01:28:07.580Z,49.03
2019-04-05T01:30:37.152Z,49.93
2019-04-05T01:33:06.528Z,47.47
2019-04-05T01:35:35.871Z,39.80
2019-04-05T01:38:05.401Z,39.57
2019-04-05T01:40:36.584Z,53.87
2019-04-05T01:43:06.490Z,43.57
2019-04-05T01:45:36.081Z,40.07
2019-04-05T01:48:05.645Z,41.00
2019-04-05T01:50:35.190Z,43.33
2019-04-05T01:53:04.564Z,38.53
2019-04-05T01:55:33.888Z,40.97
2019-04-05T01:58:03.728Z,38.30
2019-04-05T02:00:33.232Z,38.77
2019-04-05T02:03:02.524Z,39.87
2019-04-05T02:05:31.929Z,51.97
2019-04-05T02:08:01.223Z,44.87
2019-04-05T02:10:30.588Z,46.20
2019-04-05T02:13:00.196Z,43.53
2019-04-05T02:15:31.663Z,45.90
2019-04-05T02:18:01.345Z,46.67
2019-04-05T02:20:30.891Z,45.47
2019-04-05T02:23:00.242Z,49.53
2019-04-05T02:25:29.813Z,39.23
2019-04-05T02:27:59.086Z,47.93
2019-04-05T02:30:28.794Z,39.63
2019-04-05T02:32:58.236Z,52.23
2019-04-05T02:35:27.816Z,48.70
2019-04-05T02:37:57.161Z,53.40
2019-04-05T02:40:27.255Z,48.97
2019-04-05T02:42:58.606Z,47.63
2019-04-05T02:45:31.523Z,50.80
2019-04-05T02:48:04.419Z,55.10
2019-04-05T02:50:36.674Z,49.77
2019-04-05T02:53:08.880Z,48.63
2019-04-05T02:55:40.372Z,47.20
2019-04-05T02:58:10.977Z,51.73
2019-04-05T03:00:41.113Z,54.00
2019-04-05T03:03:10.776Z,57.37
2019-04-05T03:05:40.594Z,49.73
2019-04-05T03:08:10.032Z,48.13
2019-04-05T03:11:07.924Z,61.63
2019-04-05T03:13:46.866Z,54.43
2019-04-05T03:16:21.080Z,70.80
2019-04-05T03:18:59.227Z,55.70
2019-04-05T03:21:30.371Z,46.03
2019-04-05T03:24:03.193Z,46.97
2019-04-05T03:26:35.355Z,51.30
2019-04-05T03:29:08.094Z,48.13
2019-04-05T03:31:37.982Z,53.47
2019-04-05T03:34:08.113Z,49.77
2019-04-05T03:36:38.647Z,51.20
2019-04-05T03:39:08.579Z,48.10
2019-04-05T03:41:37.943Z,53.50
2019-04-05T03:44:08.786Z,51.13
2019-04-05T03:46:38.220Z,53.77
2019-04-05T03:49:07.717Z,46.97
2019-04-05T03:51:37.264Z,46.03
2019-04-05T03:54:07.049Z,53.90
2019-04-05T03:56:38.310Z,60.70
2019-04-05T03:59:08.168Z,55.27
2019-04-05T04:01:37.583Z,45.77
2019-04-05T04:04:06.884Z,59.17
2019-04-05T04:06:36.525Z,61.67
2019-04-05T04:09:07.194Z,46.40
2019-04-05T04:11:37.385Z,45.27
2019-04-05T04:14:07.421Z,52.10
2019-04-05T04:16:37.326Z,48.23
2019-04-05T04:19:06.767Z,50.53
2019-04-05T04:21:42.753Z,49.30
2019-04-05T04:24:12.385Z,53.00
2019-04-05T04:26:43.148Z,51.47
2019-04-05T04:29:13.688Z,47.67
2019-04-05T04:31:43.075Z,45.47
2019-04-05T04:34:12.778Z,58.00
2019-04-05T04:36:42.646Z,46.47
2019-04-05T04:39:12.347Z,58.53
2019-04-05T04:41:41.801Z,44.83
2019-04-05T04:44:11.335Z,45.13
2019-04-05T04:46:40.780Z,46.70
2019-04-05T04:49:10.391Z,50.47
2019-04-05T04:51:40.141Z,57.80
2019-04-05T04:54:09.702Z,57.10
2019-04-05T04:56:39.305Z,53.03
2019-04-05T04:59:09.044Z,50.00
2019-04-05T05:01:38.465Z,48.80
2019-04-05T05:04:08.438Z,54.07
2019-04-05T05:06:38.007Z,60.60
2019-04-05T05:09:07.850Z,56.00
2019-04-05T05:11:37.981Z,41.57
2019-04-05T05:14:07.692Z,52.63
2019-04-05T05:16:37.231Z,44.50
2019-04-05T05:19:07.077Z,51.80
2019-04-05T05:21:37.021Z,51.17
2019-04-05T05:24:06.612Z,59.93
2019-04-05T05:26:36.001Z,53.27
2019-04-05T05:29:05.594Z,54.57
2019-04-05T05:31:35.153Z,52.33
2019-04-05T05:34:05.061Z,50.03
2019-04-05T05:36:34.656Z,52.80
2019-04-05T05:39:06.056Z,50.10
2019-04-05T05:41:35.789Z,50.03
2019-04-05T05:44:05.281Z,47.97
2019-04-05T05:46:34.649Z,58.43
2019-04-05T05:49:04.258Z,57.07
2019-04-05T05:51:34.030Z,58.53
2019-04-05T05:54:03.305Z,53.47
2019-04-05T05:56:32.721Z,49.50
2019-04-05T05:59:02.033Z,50.57
2019-04-05T06:01:31.320Z,49.33
2019-04-05T06:04:00.828Z,44.73
2019-04-05T06:06:30.220Z,54.33
2019-04-05T06:08:59.503Z,47.63
2019-04-05T06:11:28.968Z,56.77
2019-04-05T06:13:58.339Z,48.30
2019-04-05T06:16:27.639Z,48.67
2019-04-05T06:18:56.967Z,47.83
2019-04-05T06:21:26.293Z,44.73
2019-04-05T06:23:55.514Z,52.43
2019-04-05T06:26:24.876Z,46.07
2019-04-05T06:28:54.344Z,54.33
2019-04-05T06:31:23.770Z,54.77
2019-04-05T06:33:53.055Z,45.20
2019-04-05T06:36:22.378Z,44.20
2019-04-05T06:38:51.643Z,52.73
2019-04-05T06:41:21.147Z,48.73
2019-04-05T06:43:50.467Z,46.73
2019-04-05T06:46:19.768Z,44.73
2019-04-05T06:48:49.277Z,49.53
2019-04-05T06:51:18.649Z,52.57
2019-04-05T06:53:47.947Z,46.70
2019-04-05T06:56:17.478Z,42.87
2019-04-05T06:58:46.822Z,44.77
2019-04-05T07:01:16.235Z,47.13
2019-04-05T07:03:45.805Z,44.67
2019-04-05T07:06:15.129Z,46.13
2019-04-05T07:08:53.671Z,46.50
2019-04-05T07:11:15.566Z,45.07
2019-04-05T07:13:44.827Z,44.37
2019-04-05T07:16:14.127Z,46.20
2019-04-05T07:18:43.447Z,48.93
2019-04-05T07:21:12.789Z,48.27
2019-04-05T07:23:42.134Z,43.37
2019-04-05T07:26:11.409Z,45.93
2019-04-05T07:28:40.697Z,57.50
2019-04-05T07:31:09.980Z,49.20
2019-04-05T07:33:39.358Z,54.57
2019-04-05T07:36:08.737Z,56.77
2019-04-05T07:38:38.053Z,45.80
2019-04-05T07:41:07.391Z,47.80
2019-04-05T07:43:36.753Z,51.67
2019-04-05T07:46:06.004Z,45.13
2019-04-05T07:48:44.632Z,49.60
2019-04-05T07:51:07.200Z,54.20
2019-04-05T07:53:36.745Z,50.37
2019-04-05T07:56:06.039Z,47.03
2019-04-05T07:58:35.420Z,50.47
2019-04-05T08:01:06.409Z,57.37
2019-04-05T08:03:35.732Z,48.87
2019-04-05T08:06:05.197Z,45.97
2019-04-05T08:08:49.718Z,45.97
2019-04-05T08:11:19.317Z,52.70
2019-04-05T08:13:50.090Z,50.30
2019-04-05T08:16:19.425Z,56.43
2019-04-05T08:18:57.796Z,51.60
2019-04-05T08:21:19.980Z,62.73
2019-04-05T08:23:49.338Z,43.17
2019-04-05T08:26:18.713Z,49.67
2019-04-05T08:28:48.304Z,62.53
2019-04-05T08:31:17.606Z,56.13
2019-04-05T08:33:46.986Z,51.07
2019-04-05T08:36:16.528Z,54.30
2019-04-05T08:38:45.777Z,56.20
2019-04-05T08:41:15.107Z,55.17
2019-04-05T08:43:47.041Z,51.83
2019-04-05T08:46:15.717Z,56.83
2019-04-05T08:48:45.276Z,59.27
2019-04-05T08:51:14.760Z,54.90
2019-04-05T08:53:44.076Z,58.90
2019-04-05T08:56:13.453Z,56.47
2019-04-05T08:58:42.765Z,53.87
2019-04-05T09:01:12.049Z,56.07
2019-04-05T09:03:41.563Z,58.10
2019-04-05T09:06:11.196Z,62.90
2019-04-05T09:08:40.508Z,55.87
2019-04-05T09:11:09.865Z,53.87
2019-04-05T09:13:39.201Z,53.33
2019-04-05T09:16:11.515Z,53.53
2019-04-05T09:18:39.491Z,54.63
2019-04-05T09:21:10.219Z,61.60
2019-04-05T09:23:39.599Z,50.57
2019-04-05T09:26:09.155Z,56.70
2019-04-05T09:28:38.465Z,62.60
2019-04-05T09:31:07.776Z,58.60
2019-04-05T09:33:37.301Z,58.87
2019-04-05T09:36:06.601Z,66.43
2019-04-05T09:38:35.919Z,57.97
2019-04-05T09:41:05.498Z,54.53
2019-04-05T09:43:34.820Z,59.30
2019-04-05T09:46:04.219Z,57.13
2019-04-05T09:48:33.813Z,70.67
2019-04-05T09:51:03.229Z,64.40
2019-04-05T09:53:32.512Z,61.00
2019-04-05T09:56:02.103Z,57.83
2019-04-05T09:58:31.418Z,61.87
2019-04-05T10:01:00.767Z,68.13
2019-04-05T10:03:30.325Z,62.67
2019-04-05T10:05:59.611Z,61.53
2019-04-05T10:08:28.857Z,62.87
2019-04-05T10:10:58.699Z,71.00
2019-04-05T10:13:28.004Z,73.07
2019-04-05T10:15:57.346Z,64.60
2019-04-05T10:18:26.816Z,72.10
2019-04-05T10:20:56.204Z,71.93
2019-04-05T10:23:25.509Z,63.87
2019-04-05T10:25:54.867Z,63.37
2019-04-05T10:28:24.168Z,66.43
2019-04-05T10:30:53.471Z,68.60
2019-04-05T10:33:23.056Z,64.97
2019-04-05T10:35:52.393Z,63.00
2019-04-05T10:38:21.719Z,73.47
2019-04-05T10:40:51.176Z,71.60
2019-04-05T10:43:20.535Z,66.43
2019-04-05T10:45:49.852Z,64.43
2019-04-05T10:48:19.433Z,65.03
2019-04-05T10:50:48.735Z,74.90
2019-04-05T10:53:18.100Z,59.60
2019-04-05T10:55:47.633Z,66.57
2019-04-05T10:58:16.950Z,66.90
2019-04-05T11:00:46.215Z,66.97
2019-04-05T11:03:15.768Z,60.37
2019-04-05T11:05:45.086Z,64.80
2019-04-05T11:08:14.382Z,61.57
2019-04-05T11:10:43.922Z,69.63
2019-04-05T11:13:13.247Z,64.47
2019-04-05T11:15:42.542Z,72.30
2019-04-05T11:18:12.112Z,64.30
2019-04-05T11:20:41.383Z,66.30
2019-04-05T11:23:10.646Z,72.33
2019-04-05T11:25:40.211Z,68.70
2019-04-05T11:28:09.866Z,65.73
2019-04-05T11:30:47.056Z,73.83
2019-04-05T11:33:19.458Z,67.13
2019-04-05T11:35:47.784Z,79.37
2019-04-05T11:38:17.948Z,75.00
2019-04-05T11:40:47.748Z,81.43
2019-04-05T11:43:18.009Z,73.40
2019-04-05T11:45:48.528Z,78.90
2019-04-05T11:48:18.794Z,74.37
2019-04-05T11:50:48.149Z,80.10
2019-04-05T11:53:17.571Z,79.83
2019-04-05T11:55:47.078Z,81.10
2019-04-05T11:58:16.416Z,77.70
2019-04-05T12:01:07.931Z,83.57
2019-04-05T12:03:37.386Z,79.87
2019-04-05T12:06:06.689Z,82.20
2019-04-05T12:08:36.159Z,80.63
2019-04-05T12:11:05.648Z,79.40
2019-04-05T12:13:34.951Z,83.83
2019-04-05T12:16:06.007Z,81.50
2019-04-05T12:18:35.521Z,78.63
2019-04-05T12:21:05.819Z,77.07
2019-04-05T12:23:35.245Z,76.97
2019-04-05T12:26:05.005Z,75.87
2019-04-05T12:28:34.464Z,80.40
2019-04-05T12:31:03.782Z,81.40
2019-04-05T12:33:33.118Z,72.63
2019-04-05T12:36:02.443Z,85.70
2019-04-05T12:38:33.030Z,71.27
2019-04-05T12:41:03.904Z,73.50
2019-04-05T12:43:33.509Z,80.33
2019-04-05T12:46:03.094Z,75.73
2019-04-05T12:48:32.472Z,85.83
2019-04-05T12:51:03.822Z,76.33
2019-04-05T12:53:32.861Z,79.00
2019-04-05T12:56:02.328Z,78.70
2019-04-05T12:58:32.877Z,74.80
2019-04-05T13:01:02.523Z,78.73
2019-04-05T13:03:31.822Z,78.53
2019-04-05T13:06:01.084Z,76.13
2019-04-05T13:08:30.576Z,75.60
2019-04-05T13:10:59.954Z,80.93
2019-04-05T13:13:29.259Z,80.83
2019-04-05T13:15:59.483Z,80.97
2019-04-05T13:18:31.566Z,75.67
2019-04-05T13:21:00.999Z,75.07
2019-04-05T13:23:31.256Z,79.07
2019-04-05T13:26:00.512Z,82.67
2019-04-05T13:28:30.129Z,74.77
2019-04-05T13:30:59.450Z,74.77
2019-04-05T13:33:29.122Z,80.37
2019-04-05T13:35:58.738Z,81.10
2019-04-05T13:38:29.851Z,73.47
2019-04-05T13:41:01.222Z,68.40
2019-04-05T13:43:31.847Z,75.73
2019-04-05T13:46:01.173Z,82.47
2019-04-05T13:48:30.518Z,94.47
2019-04-05T13:50:59.937Z,75.80
2019-04-05T13:53:29.553Z,77.73
2019-04-05T13:55:58.859Z,75.03
2019-04-05T13:58:28.153Z,80.80
2019-04-05T14:00:57.733Z,81.63
2019-04-05T14:03:27.061Z,76.30
2019-04-05T14:05:56.459Z,70.07
2019-04-05T14:08:26.037Z,79.03
2019-04-05T14:10:55.346Z,79.93
2019-04-05T14:13:24.722Z,75.63
2019-04-05T14:15:54.244Z,68.50
2019-04-05T14:18:23.500Z,78.87
2019-04-05T14:20:52.748Z,76.90
2019-04-05T14:23:23.921Z,74.10
2019-04-05T14:25:53.357Z,71.17
2019-04-05T14:28:22.692Z,69.03
2019-04-05T14:30:52.335Z,77.70
2019-04-05T14:33:24.535Z,70.60
2019-04-05T14:35:54.729Z,77.07
2019-04-05T14:38:23.953Z,73.20
2019-04-05T14:40:53.218Z,66.70
2019-04-05T14:43:22.516Z,65.70
2019-04-05T14:45:51.891Z,69.27
2019-04-05T14:48:21.178Z,74.23
2019-04-05T14:50:50.666Z,71.83
2019-04-05T14:53:20.262Z,79.60
2019-04-05T14:55:49.653Z,77.03
2019-04-05T14:58:19.367Z,73.70
2019-04-05T15:00:48.834Z,66.53
2019-04-05T15:03:18.155Z,72.93
2019-04-05T15:05:47.417Z,72.57
2019-04-05T15:08:20.455Z,68.17
2019-04-05T15:10:47.979Z,70.97
2019-04-05T15:13:17.307Z,76.57
2019-04-05T15:15:46.762Z,73.67
2019-04-05T15:18:16.071Z,62.23
2019-04-05T15:20:46.143Z,65.80
2019-04-05T15:23:15.786Z,65.03
2019-04-05T15:25:45.183Z,66.00
2019-04-05T15:28:14.474Z,68.40
2019-04-05T15:30:43.898Z,72.57
2019-04-05T15:33:13.180Z,61.70
2019-04-05T15:35:42.580Z,60.67
2019-04-05T15:38:11.958Z,66.07
2019-04-05T15:40:41.252Z,63.83
2019-04-05T15:43:10.595Z,63.37
2019-04-05T15:45:42.556Z,63.30
2019-04-05T15:48:10.865Z,64.97
2019-04-05T15:50:40.184Z,67.53
2019-04-05T15:53:09.749Z,58.73
2019-04-05T15:55:39.112Z,62.73
2019-04-05T15:58:08.472Z,64.93
2019-04-05T16:00:45.140Z,64.70
2019-04-05T16:03:14.878Z,58.20
2019-04-05T16:05:45.979Z,54.77
2019-04-05T16:08:18.131Z,54.80
2019-04-05T16:10:47.815Z,60.63
2019-04-05T16:13:17.060Z,53.20
2019-04-05T16:15:46.414Z,54.67
2019-04-05T16:18:16.036Z,58.90
2019-04-05T16:20:45.364Z,57.87
2019-04-05T16:23:14.674Z,49.77
2019-04-05T16:25:44.223Z,57.53
2019-04-05T16:28:13.613Z,52.40
2019-04-05T16:30:43.021Z,54.40
2019-04-05T16:33:12.310Z,53.13
2019-04-05T16:35:41.561Z,49.23
2019-04-05T16:38:10.883Z,51.63
2019-04-05T16:40:40.318Z,49.20
2019-04-05T16:43:09.601Z,54.53
2019-04-05T16:45:38.962Z,51.93
2019-04-05T16:48:08.367Z,53.10
2019-04-05T16:50:37.735Z,56.77
2019-04-05T16:53:07.097Z,54.13
2019-04-05T16:55:36.487Z,56.87
2019-04-05T16:58:05.827Z,55.20
2019-04-05T17:00:35.305Z,56.03
2019-04-05T17:03:04.863Z,50.57
2019-04-05T17:05:34.189Z,59.13
2019-04-05T17:08:03.674Z,55.27
2019-04-05T17:10:33.867Z,53.60
2019-04-05T17:13:03.134Z,55.90
2019-04-05T17:15:32.417Z,58.53
2019-04-05T17:18:01.688Z,54.40
2019-04-05T17:20:30.958Z,55.73
2019-04-05T17:23:00.322Z,51.23
2019-04-05T17:25:29.720Z,51.87
2019-04-05T17:27:59.011Z,53.17
2019-04-05T17:30:28.492Z,52.87
2019-04-05T17:32:57.847Z,52.50
2019-04-05T17:35:27.124Z,58.50
2019-04-05T17:37:56.437Z,54.57
2019-04-05T17:40:25.765Z,61.17
2019-04-05T17:42:55.065Z,56.40
2019-04-05T17:45:24.364Z,55.00
2019-04-05T17:47:53.869Z,47.43
2019-04-05T17:50:31.774Z,50.67
2019-04-05T17:53:11.933Z,52.97
2019-04-05T17:55:32.617Z,59.93
2019-04-05T17:58:03.624Z,63.00
2019-04-05T18:00:33.003Z,56.13
2019-04-05T18:03:02.359Z,57.70
2019-04-05T18:05:31.930Z,53.00
2019-04-05T18:08:01.252Z,56.13
2019-04-05T18:10:30.550Z,63.70
2019-04-05T18:13:00.152Z,67.03
2019-04-05T18:15:29.479Z,58.20
2019-04-05T18:17:58.813Z,55.80
2019-04-05T18:20:28.491Z,55.93
2019-04-05T18:22:57.776Z,57.90
2019-04-05T18:25:27.030Z,57.60
2019-04-05T18:27:56.528Z,56.60
2019-04-05T18:30:25.788Z,50.27
2019-04-05T18:32:55.030Z,59.33
2019-04-05T18:35:24.411Z,53.33
2019-04-05T18:37:53.928Z,55.60
2019-04-05T18:40:23.230Z,52.83
2019-04-05T18:42:52.790Z,59.17
2019-04-05T18:45:22.100Z,55.93
2019-04-05T18:47:51.350Z,58.43
2019-04-05T18:50:21.072Z,58.10
2019-04-05T18:52:50.401Z,50.93
2019-04-05T18:55:19.947Z,49.50
2019-04-05T18:57:49.417Z,59.30
2019-04-05T19:00:18.981Z,60.33
2019-04-05T19:02:48.278Z,58.97
2019-04-05T19:05:18.249Z,53.17
2019-04-05T19:07:47.843Z,53.30
2019-04-05T19:10:17.168Z,52.40
2019-04-05T19:12:47.375Z,64.77
2019-04-05T19:15:16.647Z,57.00
2019-04-05T19:17:45.903Z,51.30
2019-04-05T19:20:15.399Z,54.47
2019-04-05T19:22:44.702Z,53.27
2019-04-05T19:25:14.027Z,54.53
2019-04-05T19:27:43.556Z,52.90
2019-04-05T19:50:22.572Z,49.13
2019-04-05T19:52:52.119Z,50.80
2019-04-05T19:55:21.410Z,47.60
2019-04-05T19:57:50.774Z,53.20
2019-04-05T20:00:20.463Z,51.80
2019-04-05T20:02:49.856Z,49.57
2019-04-05T20:05:19.258Z,47.33
2019-04-05T20:07:48.819Z,48.53
2019-04-05T20:10:18.161Z,50.80
2019-04-05T20:12:47.477Z,51.53
2019-04-05T20:15:17.233Z,46.80
2019-04-05T20:17:46.526Z,52.73
2019-04-05T20:20:16.146Z,48.27
2019-04-05T20:22:45.592Z,44.43
2019-04-05T20:25:14.863Z,45.50
2019-04-05T20:27:44.185Z,47.33
2019-04-05T20:30:13.848Z,46.33
2019-04-05T20:32:43.099Z,44.30
2019-04-05T20:35:12.854Z,42.80
2019-04-05T20:37:42.180Z,44.90
2019-04-05T20:40:11.487Z,43.20
2019-04-05T20:42:40.876Z,47.50
2019-04-05T20:45:10.244Z,49.77
2019-04-05T20:47:39.542Z,45.57
2019-04-05T20:50:08.973Z,42.73
2019-04-05T20:52:38.285Z,43.47
2019-04-05T20:55:07.689Z,44.83
2019-04-05T20:57:37.048Z,43.07
2019-04-05T21:00:07.619Z,51.83
2019-04-05T21:02:36.917Z,47.50
2019-04-05T21:05:06.648Z,44.33
2019-04-05T21:07:36.122Z,44.53
2019-04-05T21:10:06.505Z,42.03
2019-04-05T21:12:35.790Z,42.03
2019-04-05T21:15:05.964Z,40.60
2019-04-05T21:17:35.313Z,40.77
2019-04-05T21:20:05.589Z,54.57
2019-04-05T21:22:35.102Z,45.37
2019-04-05T21:25:04.602Z,50.90
2019-04-05T21:27:33.890Z,42.27
2019-04-05T21:30:03.238Z,39.83
2019-04-05T21:32:32.518Z,44.37
2019-04-05T21:35:01.938Z,40.17
2019-04-05T21:37:31.204Z,46.13
2019-04-05T21:40:00.477Z,42.90
2019-04-05T21:42:29.808Z,42.80
2019-04-05T21:44:59.240Z,41.70
2019-04-05T21:47:28.518Z,42.80
2019-04-05T21:49:58.313Z,48.57
2019-04-05T21:52:28.364Z,46.53
2019-04-05T21:54:57.644Z,48.37
2019-04-05T21:57:26.925Z,39.90
2019-04-05T21:59:56.411Z,43.03
2019-04-05T22:02:25.874Z,47.77
2019-04-05T22:04:55.228Z,43.87
2019-04-05T22:07:24.714Z,40.10
2019-04-05T22:09:54.054Z,44.17
2019-04-05T22:12:26.775Z,40.80
2019-04-05T22:14:55.970Z,46.13
2019-04-05T22:17:25.238Z,44.93
2019-04-05T22:19:54.698Z,42.93
2019-04-05T22:22:24.002Z,45.60
2019-04-05T22:24:59.142Z,40.27
2019-04-05T22:27:24.428Z,43.13
2019-04-05T22:29:53.756Z,43.63
2019-04-05T22:32:23.082Z,45.63
2019-04-05T22:34:52.429Z,43.57
2019-04-05T22:37:21.722Z,46.50
2019-04-05T22:39:51.051Z,44.70
2019-04-05T22:42:20.592Z,45.53
2019-04-05T22:44:49.902Z,52.03
2019-04-05T22:47:19.311Z,46.97
2019-04-05T22:49:48.715Z,46.07
2019-04-05T22:52:18.012Z,48.47
2019-04-05T22:54:47.322Z,48.37
2019-04-05T22:57:16.786Z,48.17
2019-04-05T22:59:46.107Z,50.97
2019-04-05T23:02:15.465Z,43.93
2019-04-05T23:04:44.915Z,48.87
2019-04-05T23:07:15.230Z,46.90
2019-04-05T23:09:44.558Z,49.93
2019-04-05T23:12:14.027Z,47.60
2019-04-05T23:14:43.396Z,48.13
2019-04-05T23:17:12.689Z,50.33
2019-04-05T23:19:42.070Z,46.73
2019-04-05T23:22:11.424Z,52.50
2019-04-05T23:24:40.753Z,45.77
2019-04-05T23:27:10.150Z,52.50
2019-04-05T23:29:39.492Z,63.20
2019-04-05T23:32:08.770Z,46.97
2019-04-05T23:34:38.303Z,47.87
2019-04-05T23:37:07.604Z,49.87
2019-04-05T23:39:36.923Z,47.00
2019-04-05T23:42:06.313Z,48.10
2019-04-05T23:44:35.623Z,51.97
2019-04-05T23:47:04.888Z,57.10
2019-04-05T23:49:34.410Z,51.77
2019-04-05T23:52:03.766Z,56.50
2019-04-05T23:54:33.047Z,52.93
2019-04-05T23:57:02.370Z,48.93
2019-04-05T23:59:31.645Z,56.17
